Portada
METAR-TAF:

METAR-TAF

Aeroports :

Szczecin, Polònia

latitud: 53-35N, longitud: 014-54E, altitud: 1 m

Observació

L'informe es va fer fa 32 minuts, a les 09:30 UTC
Vent 6 kt del Nord-Est amb ràfegues de 16 kt, variant entre Nord i Est
Temperatura 18°C
Humitat 39%
Pressió 1008 hPa
Visibilitat 10 km o més
sense núvols per sota de 1500 mi sense presència de cumulonimbus.

METAR: EPSC 030930Z 05006G16KT 350V090 CAVOK 18/04 Q1008

Hora: 12:02 (10:02 UTC)

Pronòstic

L'informe es va fer fa 4 hores i 32 minuts, a les 05:30 UTC
Pronòstic vàlid del 03 a les 06 UTC al 04 a les 06 UTC
Vent 2 kt amb direcció variable
Visibilitat 10 km o més
sense núvols per sota de 1500 mi sense presència de cumulonimbus.
Evolucionant progressivament
l' 03 a les 08 UTC al 03 a les 11 UTC
Vent 10 kt del Est

TAF: EPSC 030530Z 0306/0406 VRB02KT CAVOK BECMG 0308/0311 08010KT

Observacions i pronòstics meteorològics de més de 4000 aeroports (METAR i TAF).

Les estacions disponibles són els punts grocs i vermells al mapa.

Posi el ratolí al punt desitjat per veure el nom de l'estació.

Feu clic per veure les observacions i els pronòstics meteorològics.

Per canviar el mapa: feu clic els botons verds amb una creu de color negre per apropar; al botó verd amb un guió per allunyar la imatge; o en les fletxes verdes per a mapes adjacents.


METAR-TAF: